sensor_id;sensor_type;location;lat;lon;timestamp;P1;P2;P0
46044;PMS7003;31781;54.094;13.428;2023-10-31T00:01:22;5.00;4.00;3.00
46044;PMS7003;31781;54.094;13.428;2023-10-31T00:03:23;2.75;2.75;2.00
46044;PMS7003;31781;54.094;13.428;2023-10-31T00:05:29;4.50;4.50;3.50
46044;PMS7003;31781;54.094;13.428;2023-10-31T00:07:33;4.75;4.75;4.00
46044;PMS7003;31781;54.094;13.428;2023-10-31T00:09:34;4.00;4.00;4.00
46044;PMS7003;31781;54.094;13.428;2023-10-31T00:11:36;3.00;3.00;2.50
46044;PMS7003;31781;54.094;13.428;2023-10-31T00:13:43;7.25;6.25;4.00
46044;PMS7003;31781;54.094;13.428;2023-10-31T00:15:45;4.00;4.00;3.50
46044;PMS7003;31781;54.094;13.428;2023-10-31T00:17:49;5.00;5.00;4.00
46044;PMS7003;31781;54.094;13.428;2023-10-31T00:19:50;5.00;5.00;4.00
46044;PMS7003;31781;54.094;13.428;2023-10-31T00:21:58;4.25;4.25;3.00
46044;PMS7003;31781;54.094;13.428;2023-10-31T00:23:59;5.50;5.00;4.00
46044;PMS7003;31781;54.094;13.428;2023-10-31T00:26:02;4.00;4.00;4.00
46044;PMS7003;31781;54.094;13.428;2023-10-31T00:28:04;5.00;5.00;4.00
46044;PMS7003;31781;54.094;13.428;2023-10-31T00:30:09;5.00;5.00;4.00
46044;PMS7003;31781;54.094;13.428;2023-10-31T00:32:13;6.50;5.50;4.00
46044;PMS7003;31781;54.094;13.428;2023-10-31T00:34:14;5.75;5.75;4.50
46044;PMS7003;31781;54.094;13.428;2023-10-31T00:36:19;4.00;4.00;3.00
46044;PMS7003;31781;54.094;13.428;2023-10-31T00:38:23;6.00;4.25;3.50
46044;PMS7003;31781;54.094;13.428;2023-10-31T00:40:25;9.75;5.75;4.25
46044;PMS7003;31781;54.094;13.428;2023-10-31T00:42:29;4.00;4.00;3.25
46044;PMS7003;31781;54.094;13.428;2023-10-31T00:44:30;5.00;4.00;3.00
46044;PMS7003;31781;54.094;13.428;2023-10-31T00:46:38;5.00;5.00;4.00
46044;PMS7003;31781;54.094;13.428;2023-10-31T00:48:42;6.25;5.25;4.00
46044;PMS7003;31781;54.094;13.428;2023-10-31T00:50:43;4.50;4.50;4.00
46044;PMS7003;31781;54.094;13.428;2023-10-31T00:52:45;5.00;3.00;2.75
46044;PMS7003;31781;54.094;13.428;2023-10-31T00:54:47;4.75;4.00;3.00
46044;PMS7003;31781;54.094;13.428;2023-10-31T00:56:48;4.00;4.00;3.00
46044;PMS7003;31781;54.094;13.428;2023-10-31T00:58:54;3.25;3.25;3.00
46044;PMS7003;31781;54.094;13.428;2023-10-31T01:00:56;7.00;7.00;5.00
46044;PMS7003;31781;54.094;13.428;2023-10-31T01:03:01;4.25;4.25;3.75
46044;PMS7003;31781;54.094;13.428;2023-10-31T01:05:03;4.75;4.75;4.00
46044;PMS7003;31781;54.094;13.428;2023-10-31T01:07:05;5.00;5.00;4.00
46044;PMS7003;31781;54.094;13.428;2023-10-31T01:09:09;4.00;4.00;3.00
46044;PMS7003;31781;54.094;13.428;2023-10-31T01:11:11;5.75;5.75;4.00
46044;PMS7003;31781;54.094;13.428;2023-10-31T01:13:12;6.00;6.00;4.25
46044;PMS7003;31781;54.094;13.428;2023-10-31T01:15:14;5.00;5.00;4.50
46044;PMS7003;31781;54.094;13.428;2023-10-31T01:17:18;3.00;3.00;2.50
46044;PMS7003;31781;54.094;13.428;2023-10-31T01:19:28;5.50;5.50;4.75
46044;PMS7003;31781;54.094;13.428;2023-10-31T01:21:37;3.00;3.00;2.25
46044;PMS7003;31781;54.094;13.428;2023-10-31T01:23:41;4.50;4.50;4.00
46044;PMS7003;31781;54.094;13.428;2023-10-31T01:25:44;4.25;4.25;3.50
46044;PMS7003;31781;54.094;13.428;2023-10-31T01:27:46;5.00;5.00;4.00
46044;PMS7003;31781;54.094;13.428;2023-10-31T01:29:49;5.50;4.75;4.00
46044;PMS7003;31781;54.094;13.428;2023-10-31T01:31:52;4.50;4.00;4.00
46044;PMS7003;31781;54.094;13.428;2023-10-31T01:34:01;6.00;4.75;3.75
46044;PMS7003;31781;54.094;13.428;2023-10-31T01:36:05;4.25;4.25;3.50
46044;PMS7003;31781;54.094;13.428;2023-10-31T01:38:07;1.75;1.75;1.25
46044;PMS7003;31781;54.094;13.428;2023-10-31T01:40:11;4.00;4.00;4.00
46044;PMS7003;31781;54.094;13.428;2023-10-31T01:42:13;4.75;4.75;3.75
46044;PMS7003;31781;54.094;13.428;2023-10-31T01:44:17;5.25;5.25;4.00
46044;PMS7003;31781;54.094;13.428;2023-10-31T01:46:19;5.25;5.00;4.00
46044;PMS7003;31781;54.094;13.428;2023-10-31T01:48:20;4.75;3.50;3.50
46044;PMS7003;31781;54.094;13.428;2023-10-31T01:50:22;3.00;3.00;2.75
46044;PMS7003;31781;54.094;13.428;2023-10-31T01:52:25;5.00;5.00;4.00
46044;PMS7003;31781;54.094;13.428;2023-10-31T01:54:28;5.25;4.00;3.25
46044;PMS7003;31781;54.094;13.428;2023-10-31T01:56:30;3.25;3.25;3.00
46044;PMS7003;31781;54.094;13.428;2023-10-31T01:58:32;3.25;2.00;2.00
46044;PMS7003;31781;54.094;13.428;2023-10-31T02:00:38;4.00;4.00;3.00
46044;PMS7003;31781;54.094;13.428;2023-10-31T02:02:42;4.25;4.25;3.75
46044;PMS7003;31781;54.094;13.428;2023-10-31T02:04:50;3.00;3.00;2.50
46044;PMS7003;31781;54.094;13.428;2023-10-31T02:06:55;4.00;2.75;2.50
46044;PMS7003;31781;54.094;13.428;2023-10-31T02:08:58;5.50;3.25;2.25
46044;PMS7003;31781;54.094;13.428;2023-10-31T02:11:02;3.50;3.50;3.00
46044;PMS7003;31781;54.094;13.428;2023-10-31T02:13:10;3.75;3.75;3.00
46044;PMS7003;31781;54.094;13.428;2023-10-31T02:20:00;3.00;3.00;2.50
46044;PMS7003;31781;54.094;13.428;2023-10-31T02:22:03;4.75;2.25;2.00
46044;PMS7003;31781;54.094;13.428;2023-10-31T02:24:09;3.00;3.00;3.00
46044;PMS7003;31781;54.094;13.428;2023-10-31T02:26:12;3.25;3.00;3.00
46044;PMS7003;31781;54.094;13.428;2023-10-31T02:28:13;4.75;3.75;3.00
46044;PMS7003;31781;54.094;13.428;2023-10-31T02:30:15;6.00;5.00;2.25
46044;PMS7003;31781;54.094;13.428;2023-10-31T02:32:17;5.00;5.00;3.75
46044;PMS7003;31781;54.094;13.428;2023-10-31T02:34:19;4.00;4.00;4.00
46044;PMS7003;31781;54.094;13.428;2023-10-31T02:36:23;3.75;3.75;3.75
46044;PMS7003;31781;54.094;13.428;2023-10-31T02:38:26;4.25;2.00;2.00
46044;PMS7003;31781;54.094;13.428;2023-10-31T02:40:28;5.00;5.00;3.75
46044;PMS7003;31781;54.094;13.428;2023-10-31T02:42:29;3.00;3.00;2.00
46044;PMS7003;31781;54.094;13.428;2023-10-31T02:44:31;5.00;3.00;3.00
46044;PMS7003;31781;54.094;13.428;2023-10-31T02:46:33;8.25;4.75;3.50
46044;PMS7003;31781;54.094;13.428;2023-10-31T02:48:38;4.50;4.50;4.00
46044;PMS7003;31781;54.094;13.428;2023-10-31T02:50:42;3.75;3.75;3.00
46044;PMS7003;31781;54.094;13.428;2023-10-31T02:52:43;3.75;3.75;2.75
46044;PMS7003;31781;54.094;13.428;2023-10-31T02:54:46;5.00;5.00;4.00
46044;PMS7003;31781;54.094;13.428;2023-10-31T02:56:48;3.50;3.50;3.00
46044;PMS7003;31781;54.094;13.428;2023-10-31T02:58:49;7.00;6.75;5.00
46044;PMS7003;31781;54.094;13.428;2023-10-31T03:00:51;5.75;5.75;4.00
46044;PMS7003;31781;54.094;13.428;2023-10-31T03:02:53;6.00;6.00;5.00
46044;PMS7003;31781;54.094;13.428;2023-10-31T03:05:00;8.25;8.25;6.00
46044;PMS7003;31781;54.094;13.428;2023-10-31T03:07:02;10.00;6.75;5.75
46044;PMS7003;31781;54.094;13.428;2023-10-31T03:09:18;10.00;8.25;7.00
46044;PMS7003;31781;54.094;13.428;2023-10-31T03:11:22;8.25;8.25;7.00
46044;PMS7003;31781;54.094;13.428;2023-10-31T03:13:24;7.00;7.00;6.00
46044;PMS7003;31781;54.094;13.428;2023-10-31T03:15:29;10.00;8.00;6.00
46044;PMS7003;31781;54.094;13.428;2023-10-31T03:17:32;9.50;9.50;7.50
46044;PMS7003;31781;54.094;13.428;2023-10-31T03:19:36;8.00;8.00;6.00
46044;PMS7003;31781;54.094;13.428;2023-10-31T03:21:40;9.50;6.75;5.00
46044;PMS7003;31781;54.094;13.428;2023-10-31T03:23:46;6.75;6.75;5.75
46044;PMS7003;31781;54.094;13.428;2023-10-31T03:25:50;6.25;6.25;5.25
46044;PMS7003;31781;54.094;13.428;2023-10-31T03:27:53;7.50;7.50;6.00
46044;PMS7003;31781;54.094;13.428;2023-10-31T03:29:56;7.00;7.00;6.00
46044;PMS7003;31781;54.094;13.428;2023-10-31T03:31:58;8.50;8.25;5.25
46044;PMS7003;31781;54.094;13.428;2023-10-31T03:33:59;7.00;7.00;5.75
46044;PMS7003;31781;54.094;13.428;2023-10-31T03:36:01;7.50;7.50;5.00
46044;PMS7003;31781;54.094;13.428;2023-10-31T03:38:05;10.00;5.75;5.25
46044;PMS7003;31781;54.094;13.428;2023-10-31T03:40:07;8.75;8.75;6.25
46044;PMS7003;31781;54.094;13.428;2023-10-31T03:42:09;7.75;7.75;6.00
46044;PMS7003;31781;54.094;13.428;2023-10-31T03:49:44;6.00;6.00;5.00
46044;PMS7003;31781;54.094;13.428;2023-10-31T03:51:59;8.75;8.75;7.00
46044;PMS7003;31781;54.094;13.428;2023-10-31T03:54:07;9.75;8.50;6.00
46044;PMS7003;31781;54.094;13.428;2023-10-31T03:57:10;8.00;6.25;5.00
46044;PMS7003;31781;54.094;13.428;2023-10-31T03:59:17;7.50;7.50;5.00
46044;PMS7003;31781;54.094;13.428;2023-10-31T04:04:05;6.75;5.25;4.00
46044;PMS7003;31781;54.094;13.428;2023-10-31T04:12:16;6.00;6.00;5.00
46044;PMS7003;31781;54.094;13.428;2023-10-31T04:16:39;8.25;6.50;5.00
46044;PMS7003;31781;54.094;13.428;2023-10-31T04:17:20;10.00;10.00;6.00
46044;PMS7003;31781;54.094;13.428;2023-10-31T04:19:23;7.50;7.50;6.25
46044;PMS7003;31781;54.094;13.428;2023-10-31T04:21:58;9.75;8.25;6.25
46044;PMS7003;31781;54.094;13.428;2023-10-31T04:24:11;5.00;5.00;3.00
46044;PMS7003;31781;54.094;13.428;2023-10-31T04:27:05;11.50;11.50;8.25
46044;PMS7003;31781;54.094;13.428;2023-10-31T04:35:17;11.50;10.00;7.00
46044;PMS7003;31781;54.094;13.428;2023-10-31T04:37:32;12.25;11.00;7.75
46044;PMS7003;31781;54.094;13.428;2023-10-31T04:39:50;13.75;12.00;8.00
46044;PMS7003;31781;54.094;13.428;2023-10-31T04:41:55;11.00;11.00;7.50
46044;PMS7003;31781;54.094;13.428;2023-10-31T04:44:00;23.25;23.25;15.00
46044;PMS7003;31781;54.094;13.428;2023-10-31T04:46:18;14.75;12.75;10.25
46044;PMS7003;31781;54.094;13.428;2023-10-31T04:48:39;13.50;13.00;10.25
46044;PMS7003;31781;54.094;13.428;2023-10-31T04:50:57;13.50;13.50;7.00
46044;PMS7003;31781;54.094;13.428;2023-10-31T04:52:59;13.75;13.75;10.00
46044;PMS7003;31781;54.094;13.428;2023-10-31T04:55:00;12.75;12.75;9.50
46044;PMS7003;31781;54.094;13.428;2023-10-31T04:57:02;11.50;11.00;8.00
46044;PMS7003;31781;54.094;13.428;2023-10-31T04:59:04;10.00;10.00;7.75
46044;PMS7003;31781;54.094;13.428;2023-10-31T05:01:07;9.50;9.50;6.25
46044;PMS7003;31781;54.094;13.428;2023-10-31T05:03:09;7.25;7.25;5.50
46044;PMS7003;31781;54.094;13.428;2023-10-31T05:05:17;6.50;6.25;4.50
46044;PMS7003;31781;54.094;13.428;2023-10-31T05:07:20;11.50;9.75;6.00
46044;PMS7003;31781;54.094;13.428;2023-10-31T05:09:23;7.75;7.75;5.75
46044;PMS7003;31781;54.094;13.428;2023-10-31T05:11:25;12.25;12.25;8.50
46044;PMS7003;31781;54.094;13.428;2023-10-31T05:13:26;11.00;8.25;6.00
46044;PMS7003;31781;54.094;13.428;2023-10-31T05:15:28;11.50;11.50;7.00
46044;PMS7003;31781;54.094;13.428;2023-10-31T05:17:32;13.75;12.25;9.50
46044;PMS7003;31781;54.094;13.428;2023-10-31T05:19:34;9.25;8.75;6.00
46044;PMS7003;31781;54.094;13.428;2023-10-31T05:21:35;16.50;13.50;8.00
46044;PMS7003;31781;54.094;13.428;2023-10-31T05:23:46;9.25;9.25;6.00
46044;PMS7003;31781;54.094;13.428;2023-10-31T05:25:51;10.25;10.25;7.50
46044;PMS7003;31781;54.094;13.428;2023-10-31T05:27:53;1.75;1.75;0.75
46044;PMS7003;31781;54.094;13.428;2023-10-31T05:29:55;10.75;10.75;7.50
46044;PMS7003;31781;54.094;13.428;2023-10-31T05:32:01;8.75;8.75;7.00
46044;PMS7003;31781;54.094;13.428;2023-10-31T05:34:03;12.25;11.75;8.00
46044;PMS7003;31781;54.094;13.428;2023-10-31T05:36:05;12.00;12.00;8.00
46044;PMS7003;31781;54.094;13.428;2023-10-31T05:38:18;14.50;12.75;8.00
46044;PMS7003;31781;54.094;13.428;2023-10-31T05:40:23;8.50;8.50;7.00
46044;PMS7003;31781;54.094;13.428;2023-10-31T05:42:30;10.25;10.25;7.00
46044;PMS7003;31781;54.094;13.428;2023-10-31T05:44:32;12.75;12.75;8.75
46044;PMS7003;31781;54.094;13.428;2023-10-31T05:46:37;12.25;12.25;9.00
46044;PMS7003;31781;54.094;13.428;2023-10-31T05:48:42;12.50;12.50;9.00
46044;PMS7003;31781;54.094;13.428;2023-10-31T05:50:51;9.75;9.75;5.75
46044;PMS7003;31781;54.094;13.428;2023-10-31T05:52:53;11.50;11.50;8.25
46044;PMS7003;31781;54.094;13.428;2023-10-31T05:54:55;9.00;7.00;5.00
46044;PMS7003;31781;54.094;13.428;2023-10-31T05:56:59;8.00;8.00;5.75
46044;PMS7003;31781;54.094;13.428;2023-10-31T05:59:06;9.50;7.00;6.00
46044;PMS7003;31781;54.094;13.428;2023-10-31T06:01:08;7.25;7.25;5.00
46044;PMS7003;31781;54.094;13.428;2023-10-31T06:03:10;9.50;9.50;7.25
46044;PMS7003;31781;54.094;13.428;2023-10-31T06:05:16;8.00;6.25;5.00
46044;PMS7003;31781;54.094;13.428;2023-10-31T06:07:18;13.25;13.25;9.75
46044;PMS7003;31781;54.094;13.428;2023-10-31T06:09:19;7.00;7.00;6.50
46044;PMS7003;31781;54.094;13.428;2023-10-31T06:11:21;6.75;6.75;5.00
46044;PMS7003;31781;54.094;13.428;2023-10-31T06:13:30;12.25;10.75;6.50
46044;PMS7003;31781;54.094;13.428;2023-10-31T06:15:36;10.25;9.75;7.00
46044;PMS7003;31781;54.094;13.428;2023-10-31T06:17:39;5.00;5.00;4.00
46044;PMS7003;31781;54.094;13.428;2023-10-31T06:19:42;8.25;8.25;6.00
46044;PMS7003;31781;54.094;13.428;2023-10-31T06:21:44;8.25;8.25;7.00
46044;PMS7003;31781;54.094;13.428;2023-10-31T06:23:45;8.50;8.50;6.50
46044;PMS7003;31781;54.094;13.428;2023-10-31T06:25:47;8.00;8.00;7.25
46044;PMS7003;31781;54.094;13.428;2023-10-31T06:27:50;10.50;9.75;6.75
46044;PMS7003;31781;54.094;13.428;2023-10-31T06:29:55;9.00;9.00;5.50
46044;PMS7003;31781;54.094;13.428;2023-10-31T06:32:18;8.00;8.00;5.00
46044;PMS7003;31781;54.094;13.428;2023-10-31T06:34:20;12.50;11.00;7.00
46044;PMS7003;31781;54.094;13.428;2023-10-31T06:36:24;8.00;8.00;7.00
46044;PMS7003;31781;54.094;13.428;2023-10-31T06:38:27;4.00;4.00;2.75
46044;PMS7003;31781;54.094;13.428;2023-10-31T06:40:29;9.75;9.00;5.75
46044;PMS7003;31781;54.094;13.428;2023-10-31T06:42:30;12.75;12.00;7.00
46044;PMS7003;31781;54.094;13.428;2023-10-31T06:44:35;10.50;10.00;7.00
46044;PMS7003;31781;54.094;13.428;2023-10-31T06:46:38;9.00;9.00;5.75
46044;PMS7003;31781;54.094;13.428;2023-10-31T06:48:41;11.00;8.50;6.25
46044;PMS7003;31781;54.094;13.428;2023-10-31T06:50:45;9.25;9.00;6.50
46044;PMS7003;31781;54.094;13.428;2023-10-31T06:52:47;10.75;10.25;7.00
46044;PMS7003;31781;54.094;13.428;2023-10-31T06:55:26;7.00;7.00;4.50
46044;PMS7003;31781;54.094;13.428;2023-10-31T06:57:25;7.25;5.50;4.50
46044;PMS7003;31781;54.094;13.428;2023-10-31T06:59:28;6.00;6.00;5.00
46044;PMS7003;31781;54.094;13.428;2023-10-31T07:01:30;8.00;6.00;5.00
46044;PMS7003;31781;54.094;13.428;2023-10-31T07:03:33;7.25;6.50;5.75
46044;PMS7003;31781;54.094;13.428;2023-10-31T07:05:34;10.00;8.25;6.75
46044;PMS7003;31781;54.094;13.428;2023-10-31T07:07:38;5.75;5.75;4.75
46044;PMS7003;31781;54.094;13.428;2023-10-31T07:09:41;7.00;7.00;5.00
46044;PMS7003;31781;54.094;13.428;2023-10-31T07:11:43;12.00;11.75;7.00
46044;PMS7003;31781;54.094;13.428;2023-10-31T07:13:47;8.75;8.75;7.00
46044;PMS7003;31781;54.094;13.428;2023-10-31T07:15:50;6.75;6.75;5.75
46044;PMS7003;31781;54.094;13.428;2023-10-31T07:17:52;13.00;7.00;6.00
46044;PMS7003;31781;54.094;13.428;2023-10-31T07:19:57;8.25;8.25;6.50
46044;PMS7003;31781;54.094;13.428;2023-10-31T07:21:59;14.75;13.00;9.00
46044;PMS7003;31781;54.094;13.428;2023-10-31T07:24:01;9.75;9.75;7.00
46044;PMS7003;31781;54.094;13.428;2023-10-31T07:26:05;12.25;12.25;9.00
46044;PMS7003;31781;54.094;13.428;2023-10-31T07:28:07;7.25;7.25;6.00
46044;PMS7003;31781;54.094;13.428;2023-10-31T07:30:13;8.25;8.25;6.50
46044;PMS7003;31781;54.094;13.428;2023-10-31T07:32:14;10.75;10.75;6.25
46044;PMS7003;31781;54.094;13.428;2023-10-31T07:34:16;10.75;8.75;7.75
46044;PMS7003;31781;54.094;13.428;2023-10-31T07:36:22;12.00;11.00;8.00
46044;PMS7003;31781;54.094;13.428;2023-10-31T07:38:25;6.00;3.00;1.00
46044;PMS7003;31781;54.094;13.428;2023-10-31T07:40:27;7.50;7.50;5.00
46044;PMS7003;31781;54.094;13.428;2023-10-31T07:42:28;9.75;9.25;7.00
46044;PMS7003;31781;54.094;13.428;2023-10-31T07:44:32;8.75;7.25;5.75
46044;PMS7003;31781;54.094;13.428;2023-10-31T07:46:36;6.75;6.75;5.75
46044;PMS7003;31781;54.094;13.428;2023-10-31T07:48:40;6.50;6.50;5.50
46044;PMS7003;31781;54.094;13.428;2023-10-31T07:50:42;11.00;10.25;7.00
46044;PMS7003;31781;54.094;13.428;2023-10-31T07:52:45;10.25;10.25;6.75
46044;PMS7003;31781;54.094;13.428;2023-10-31T07:54:49;8.00;8.00;6.00
46044;PMS7003;31781;54.094;13.428;2023-10-31T07:56:50;8.75;8.75;6.25
46044;PMS7003;31781;54.094;13.428;2023-10-31T07:58:52;7.25;7.25;6.25
46044;PMS7003;31781;54.094;13.428;2023-10-31T08:00:56;10.50;8.00;6.00
46044;PMS7003;31781;54.094;13.428;2023-10-31T08:02:58;6.75;6.75;6.00
46044;PMS7003;31781;54.094;13.428;2023-10-31T08:04:59;9.50;9.50;7.00
46044;PMS7003;31781;54.094;13.428;2023-10-31T08:07:03;10.50;10.50;6.50
46044;PMS7003;31781;54.094;13.428;2023-10-31T08:09:10;12.25;8.00;6.50
46044;PMS7003;31781;54.094;13.428;2023-10-31T08:11:12;10.00;8.25;6.25
46044;PMS7003;31781;54.094;13.428;2023-10-31T08:13:15;10.75;8.25;6.75
46044;PMS7003;31781;54.094;13.428;2023-10-31T08:15:18;7.00;7.00;5.00
46044;PMS7003;31781;54.094;13.428;2023-10-31T08:17:22;13.50;11.50;8.00
46044;PMS7003;31781;54.094;13.428;2023-10-31T08:19:25;8.50;7.75;6.00
46044;PMS7003;31781;54.094;13.428;2023-10-31T08:21:26;8.00;8.00;5.75
46044;PMS7003;31781;54.094;13.428;2023-10-31T08:23:30;9.75;9.75;6.75
46044;PMS7003;31781;54.094;13.428;2023-10-31T08:25:33;12.75;12.75;8.00
46044;PMS7003;31781;54.094;13.428;2023-10-31T08:27:34;9.75;8.50;6.00
46044;PMS7003;31781;54.094;13.428;2023-10-31T08:29:39;12.00;12.00;8.50
46044;PMS7003;31781;54.094;13.428;2023-10-31T08:31:45;13.00;9.00;7.00
46044;PMS7003;31781;54.094;13.428;2023-10-31T08:33:47;14.50;11.00;7.00
46044;PMS7003;31781;54.094;13.428;2023-10-31T08:35:48;9.50;9.50;7.50
46044;PMS7003;31781;54.094;13.428;2023-10-31T08:37:50;9.00;9.00;7.00
46044;PMS7003;31781;54.094;13.428;2023-10-31T08:39:53;11.25;11.25;7.50
46044;PMS7003;31781;54.094;13.428;2023-10-31T08:41:57;10.00;10.00;7.00
46044;PMS7003;31781;54.094;13.428;2023-10-31T08:43:59;9.75;6.75;5.50
46044;PMS7003;31781;54.094;13.428;2023-10-31T08:46:01;8.75;8.75;6.25
46044;PMS7003;31781;54.094;13.428;2023-10-31T08:48:03;13.25;11.75;7.50
46044;PMS7003;31781;54.094;13.428;2023-10-31T08:50:06;13.25;11.50;8.25
46044;PMS7003;31781;54.094;13.428;2023-10-31T08:52:08;11.75;11.75;7.75
46044;PMS7003;31781;54.094;13.428;2023-10-31T08:54:13;9.00;9.00;5.75
46044;PMS7003;31781;54.094;13.428;2023-10-31T08:56:16;9.00;7.50;6.00
46044;PMS7003;31781;54.094;13.428;2023-10-31T08:58:25;11.75;9.25;6.00
46044;PMS7003;31781;54.094;13.428;2023-10-31T09:00:26;7.50;7.50;6.00
46044;PMS7003;31781;54.094;13.428;2023-10-31T09:02:28;6.50;6.50;5.00
46044;PMS7003;31781;54.094;13.428;2023-10-31T09:04:31;9.00;9.00;6.00
46044;PMS7003;31781;54.094;13.428;2023-10-31T09:06:32;8.00;6.75;5.50
46044;PMS7003;31781;54.094;13.428;2023-10-31T09:08:34;7.75;7.25;6.00
46044;PMS7003;31781;54.094;13.428;2023-10-31T09:10:36;9.50;8.50;6.25
46044;PMS7003;31781;54.094;13.428;2023-10-31T09:12:38;8.50;8.25;6.00
46044;PMS7003;31781;54.094;13.428;2023-10-31T09:14:45;5.25;5.25;5.00
46044;PMS7003;31781;54.094;13.428;2023-10-31T09:16:46;5.25;5.25;4.50
46044;PMS7003;31781;54.094;13.428;2023-10-31T09:18:50;6.25;5.00;4.00
46044;PMS7003;31781;54.094;13.428;2023-10-31T09:20:55;8.00;7.00;5.25
46044;PMS7003;31781;54.094;13.428;2023-10-31T09:23:01;6.50;6.50;5.00
46044;PMS7003;31781;54.094;13.428;2023-10-31T09:25:03;7.00;7.00;5.50
46044;PMS7003;31781;54.094;13.428;2023-10-31T09:27:05;8.00;6.50;5.00
46044;PMS7003;31781;54.094;13.428;2023-10-31T09:29:07;6.75;6.75;5.00
46044;PMS7003;31781;54.094;13.428;2023-10-31T09:31:19;7.25;7.25;4.25
46044;PMS7003;31781;54.094;13.428;2023-10-31T09:33:21;7.25;7.25;6.50
46044;PMS7003;31781;54.094;13.428;2023-10-31T09:35:25;7.00;7.00;5.25
46044;PMS7003;31781;54.094;13.428;2023-10-31T09:37:27;6.75;6.75;5.75
46044;PMS7003;31781;54.094;13.428;2023-10-31T09:39:29;8.75;7.00;6.00
46044;PMS7003;31781;54.094;13.428;2023-10-31T09:41:32;7.00;7.00;5.25
46044;PMS7003;31781;54.094;13.428;2023-10-31T09:43:34;7.00;7.00;6.00
46044;PMS7003;31781;54.094;13.428;2023-10-31T09:45:38;8.50;8.25;5.75
46044;PMS7003;31781;54.094;13.428;2023-10-31T09:47:44;5.75;5.75;4.75
46044;PMS7003;31781;54.094;13.428;2023-10-31T09:49:47;8.00;8.00;6.00
46044;PMS7003;31781;54.094;13.428;2023-10-31T09:51:55;6.00;6.00;5.50
46044;PMS7003;31781;54.094;13.428;2023-10-31T09:53:56;8.25;6.50;4.50
46044;PMS7003;31781;54.094;13.428;2023-10-31T09:56:00;9.00;7.25;6.00
46044;PMS7003;31781;54.094;13.428;2023-10-31T09:58:08;8.50;7.50;6.00
46044;PMS7003;31781;54.094;13.428;2023-10-31T10:00:12;5.00;5.00;4.00
46044;PMS7003;31781;54.094;13.428;2023-10-31T10:02:14;3.00;3.00;2.00
46044;PMS7003;31781;54.094;13.428;2023-10-31T10:04:17;5.25;5.25;4.00
46044;PMS7003;31781;54.094;13.428;2023-10-31T10:06:25;7.25;7.25;6.25
46044;PMS7003;31781;54.094;13.428;2023-10-31T10:08:29;6.00;6.00;5.00
46044;PMS7003;31781;54.094;13.428;2023-10-31T10:10:33;5.75;5.75;4.25
46044;PMS7003;31781;54.094;13.428;2023-10-31T10:12:37;6.00;6.00;4.75
46044;PMS7003;31781;54.094;13.428;2023-10-31T10:14:40;7.50;7.50;5.50
46044;PMS7003;31781;54.094;13.428;2023-10-31T10:16:44;6.25;6.25;5.00
46044;PMS7003;31781;54.094;13.428;2023-10-31T10:19:14;6.00;6.00;5.00
46044;PMS7003;31781;54.094;13.428;2023-10-31T10:21:31;6.50;6.50;5.75
46044;PMS7003;31781;54.094;13.428;2023-10-31T10:24:33;5.00;5.00;4.25
46044;PMS7003;31781;54.094;13.428;2023-10-31T10:26:48;5.75;5.75;4.75
46044;PMS7003;31781;54.094;13.428;2023-10-31T10:29:12;4.75;4.75;4.00
46044;PMS7003;31781;54.094;13.428;2023-10-31T10:31:56;5.25;5.25;5.00
46044;PMS7003;31781;54.094;13.428;2023-10-31T10:34:40;3.75;3.50;2.00
46044;PMS7003;31781;54.094;13.428;2023-10-31T10:36:50;5.25;5.25;5.00
46044;PMS7003;31781;54.094;13.428;2023-10-31T10:38:51;5.50;5.50;4.00
46044;PMS7003;31781;54.094;13.428;2023-10-31T10:40:57;5.50;4.25;3.75
46044;PMS7003;31781;54.094;13.428;2023-10-31T10:43:03;5.25;5.25;5.00
46044;PMS7003;31781;54.094;13.428;2023-10-31T10:45:12;5.00;5.00;4.00
46044;PMS7003;31781;54.094;13.428;2023-10-31T10:47:57;5.00;5.00;4.25
46044;PMS7003;31781;54.094;13.428;2023-10-31T10:50:20;3.75;3.75;3.00
46044;PMS7003;31781;54.094;13.428;2023-10-31T10:55:00;3.50;3.50;2.75
46044;PMS7003;31781;54.094;13.428;2023-10-31T10:57:08;2.00;2.00;1.50
46044;PMS7003;31781;54.094;13.428;2023-10-31T10:59:15;1.75;1.75;1.75
46044;PMS7003;31781;54.094;13.428;2023-10-31T11:01:22;1.00;1.00;1.00
46044;PMS7003;31781;54.094;13.428;2023-10-31T11:03:27;0.75;0.75;0.50
46044;PMS7003;31781;54.094;13.428;2023-10-31T11:05:32;2.25;1.50;1.00
46044;PMS7003;31781;54.094;13.428;2023-10-31T11:07:36;0.50;0.50;0.25
46044;PMS7003;31781;54.094;13.428;2023-10-31T11:09:44;2.00;2.00;1.75
46044;PMS7003;31781;54.094;13.428;2023-10-31T11:11:46;2.00;2.00;2.00
46044;PMS7003;31781;54.094;13.428;2023-10-31T11:13:49;4.00;2.75;2.00
46044;PMS7003;31781;54.094;13.428;2023-10-31T11:15:53;3.00;3.00;2.50
46044;PMS7003;31781;54.094;13.428;2023-10-31T11:18:01;3.75;3.75;3.00
46044;PMS7003;31781;54.094;13.428;2023-10-31T11:20:05;3.50;2.00;1.75
46044;PMS7003;31781;54.094;13.428;2023-10-31T11:22:10;2.00;2.00;2.00
46044;PMS7003;31781;54.094;13.428;2023-10-31T11:24:12;1.75;1.75;1.00
46044;PMS7003;31781;54.094;13.428;2023-10-31T11:26:14;1.00;1.00;1.00
46044;PMS7003;31781;54.094;13.428;2023-10-31T11:28:18;1.00;1.00;1.00
46044;PMS7003;31781;54.094;13.428;2023-10-31T11:30:20;0.25;0.25;0.00
46044;PMS7003;31781;54.094;13.428;2023-10-31T11:32:23;0.25;0.25;0.00
46044;PMS7003;31781;54.094;13.428;2023-10-31T11:34:28;1.00;1.00;0.50
46044;PMS7003;31781;54.094;13.428;2023-10-31T11:36:35;1.00;1.00;1.00
46044;PMS7003;31781;54.094;13.428;2023-10-31T11:38:37;0.00;0.00;0.00
46044;PMS7003;31781;54.094;13.428;2023-10-31T11:40:46;0.50;0.50;0.00
46044;PMS7003;31781;54.094;13.428;2023-10-31T11:43:04;1.25;1.25;1.00
46044;PMS7003;31781;54.094;13.428;2023-10-31T11:45:09;1.00;1.00;1.00
46044;PMS7003;31781;54.094;13.428;2023-10-31T11:47:15;0.50;0.50;0.25
46044;PMS7003;31781;54.094;13.428;2023-10-31T11:49:18;0.00;0.00;0.00
46044;PMS7003;31781;54.094;13.428;2023-10-31T11:51:48;0.20;0.20;0.20
46044;PMS7003;31781;54.094;13.428;2023-10-31T11:53:49;0.00;0.00;0.00
46044;PMS7003;31781;54.094;13.428;2023-10-31T11:55:51;0.50;0.50;0.50
46044;PMS7003;31781;54.094;13.428;2023-10-31T11:57:53;0.00;0.00;0.00
46044;PMS7003;31781;54.094;13.428;2023-10-31T11:59:54;2.00;2.00;1.50
46044;PMS7003;31781;54.094;13.428;2023-10-31T12:01:56;0.00;0.00;0.00
46044;PMS7003;31781;54.094;13.428;2023-10-31T12:03:59;0.00;0.00;0.00
46044;PMS7003;31781;54.094;13.428;2023-10-31T12:06:05;0.00;0.00;0.00
46044;PMS7003;31781;54.094;13.428;2023-10-31T12:08:10;0.00;0.00;0.00
46044;PMS7003;31781;54.094;13.428;2023-10-31T12:10:11;0.00;0.00;0.00
46044;PMS7003;31781;54.094;13.428;2023-10-31T12:12:14;0.00;0.00;0.00
46044;PMS7003;31781;54.094;13.428;2023-10-31T12:14:18;0.00;0.00;0.00
46044;PMS7003;31781;54.094;13.428;2023-10-31T12:16:22;0.00;0.00;0.00
46044;PMS7003;31781;54.094;13.428;2023-10-31T12:18:24;0.00;0.00;0.00
46044;PMS7003;31781;54.094;13.428;2023-10-31T12:20:26;0.00;0.00;0.00
46044;PMS7003;31781;54.094;13.428;2023-10-31T12:22:29;0.00;0.00;0.00
46044;PMS7003;31781;54.094;13.428;2023-10-31T12:24:31;0.00;0.00;0.00
46044;PMS7003;31781;54.094;13.428;2023-10-31T12:26:32;0.00;0.00;0.00
46044;PMS7003;31781;54.094;13.428;2023-10-31T12:28:34;0.00;0.00;0.00